Time;durP1;ratioP1;P1;durP2;ratioP2;P2;SDS_P1;SDS_P2;PMS_P1;PMS_P2;Temp;Humidity;BMP_temperature;BMP_pressure;BME280_temperature;BME280_humidity;BME280_pressure;Samples;Min_cycle;Max_cycle;Signal;HPM_P1;HPM_P2
2023/07/05 00:00:59;;;;;;;0.60;0.60;;;;;15.80;95688.00;;;;5033606;28;20231;-57
2023/07/05 00:03:27;;;;;;;1.13;1.13;;;;;15.80;95687.00;;;;5033384;28;20227;-54
2023/07/05 00:05:55;;;;;;;0.50;0.50;;;;;15.90;95680.00;;;;5033929;28;20288;-54
2023/07/05 00:08:23;;;;;;;0.60;0.60;;;;;15.90;95684.00;;;;5033402;28;20196;-54
2023/07/05 00:10:51;;;;;;;0.60;0.60;;;;;15.90;95678.00;;;;5033386;28;20217;-54
2023/07/05 00:13:18;;;;;;;15.50;1.07;;;;;16.00;95663.00;;;;5033209;28;20263;-54
2023/07/05 00:15:48;;;;;;;0.50;0.50;;;;;16.00;95661.00;;;;5033433;28;20200;-54
2023/07/05 00:18:16;;;;;;;2.90;1.27;;;;;16.00;95664.00;;;;5033620;28;20204;-54
2023/07/05 00:20:44;;;;;;;0.60;0.60;;;;;16.10;95656.00;;;;5033428;28;20197;-55
2023/07/05 00:23:12;;;;;;;0.60;0.60;;;;;16.10;95654.00;;;;5033159;28;20208;-54
2023/07/05 00:25:40;;;;;;;0.60;0.60;;;;;16.10;95660.00;;;;5033135;28;20192;-54
2023/07/05 00:28:07;;;;;;;0.60;0.60;;;;;15.90;95650.00;;;;5033369;28;20217;-55
2023/07/05 00:30:35;;;;;;;2.33;1.13;;;;;15.90;95656.00;;;;5031795;28;20193;-55
2023/07/05 00:33:02;;;;;;;0.50;0.50;;;;;16.00;95650.00;;;;5033006;28;20219;-54
2023/07/05 00:35:29;;;;;;;0.50;0.50;;;;;16.00;95635.00;;;;5033206;28;20188;-55
2023/07/05 00:37:57;;;;;;;1.10;1.10;;;;;15.90;95628.00;;;;5032991;28;20718;-55
2023/07/05 00:40:25;;;;;;;2.20;1.30;;;;;16.10;95642.00;;;;5033127;28;20562;-55
2023/07/05 00:42:53;;;;;;;0.60;0.60;;;;;16.00;95645.00;;;;5032809;28;20213;-55
2023/07/05 00:45:50;;;;;;;0.63;0.63;;;;;16.00;95643.00;;;;5032836;28;20196;-55
2023/07/05 00:48:20;;;;;;;0.73;0.73;;;;;16.20;95648.00;;;;5032830;28;20279;-55
2023/07/05 00:50:51;;;;;;;1.07;1.07;;;;;16.20;95664.00;;;;5033044;28;20247;-55
2023/07/05 00:53:19;;;;;;;0.73;0.73;;;;;16.20;95678.00;;;;5033313;28;20215;-55
2023/07/05 00:55:53;;;;;;;1.10;1.10;;;;;16.40;95649.00;;;;5033065;28;20246;-55
2023/07/05 00:58:22;;;;;;;0.60;0.60;;;;;16.30;95638.00;;;;5033128;28;20184;-54
2023/07/05 01:00:51;;;;;;;0.73;0.73;;;;;16.20;95621.00;;;;5033084;28;20678;-54
2023/07/05 01:03:21;;;;;;;0.87;0.87;;;;;16.00;95619.00;;;;5032816;28;20220;-55
2023/07/05 01:05:52;;;;;;;1.03;0.80;;;;;16.00;95606.00;;;;5032764;28;20271;-54
2023/07/05 01:08:19;;;;;;;0.87;0.87;;;;;16.00;95597.00;;;;5033308;28;20201;-54
2023/07/05 01:10:53;;;;;;;1.00;0.93;;;;;16.00;95636.00;;;;5032741;28;20644;-55
2023/07/05 01:13:28;;;;;;;0.97;0.97;;;;;15.80;95632.00;;;;5031369;28;20765;-55
2023/07/05 01:16:03;;;;;;;0.80;0.80;;;;;15.80;95640.00;;;;5032839;28;20188;-54
2023/07/05 01:18:39;;;;;;;0.60;0.60;;;;;15.80;95633.00;;;;5032708;28;20215;-55
2023/07/05 01:21:14;;;;;;;0.80;0.80;;;;;15.80;95624.00;;;;5032909;28;20181;-54
2023/07/05 01:24:18;;;;;;;0.70;0.70;;;;;15.60;95606.00;;;;5032823;28;20216;-55
2023/07/05 01:27:24;;;;;;;1.40;1.33;;;;;15.70;95586.00;;;;5032829;28;20204;-55
2023/07/05 01:30:22;;;;;;;0.60;0.60;;;;;15.70;95605.00;;;;5032821;28;20192;-54
2023/07/05 01:32:56;;;;;;;0.60;0.60;;;;;15.50;95623.00;;;;5033702;28;20228;-54
2023/07/05 01:35:28;;;;;;;0.60;0.60;;;;;15.40;95622.00;;;;5036640;28;20185;-54
2023/07/05 01:37:57;;;;;;;0.87;0.87;;;;;15.30;95618.00;;;;5036350;28;20204;-54
2023/07/05 01:40:57;;;;;;;0.70;0.70;;;;;15.00;95620.00;;;;5036225;28;20195;-54
2023/07/05 01:43:26;;;;;;;0.73;0.73;;;;;15.00;95623.00;;;;5003534;28;20240;-54
2023/07/05 01:46:22;;;;;;;0.70;0.70;;;;;15.10;95640.00;;;;5034834;28;20196;-55
2023/07/05 01:49:10;;;;;;;0.73;0.73;;;;;15.20;95648.00;;;;5036017;28;20672;-55
2023/07/05 01:51:44;;;;;;;0.70;0.70;;;;;15.20;95650.00;;;;5036387;28;20185;-55
2023/07/05 01:54:14;;;;;;;0.80;0.80;;;;;15.10;95660.00;;;;5036174;28;20230;-55
2023/07/05 01:56:51;;;;;;;0.70;0.70;;;;;15.00;95665.00;;;;5034690;28;20189;-54
2023/07/05 01:59:23;;;;;;;0.70;0.70;;;;;15.20;95673.00;;;;5036149;28;20188;-54
2023/07/05 02:01:52;;;;;;;0.50;0.50;;;;;15.10;95666.00;;;;5035861;28;20264;-54
2023/07/05 02:04:22;;;;;;;1.50;1.10;;;;;15.40;95658.00;;;;5035862;28;20713;-54
2023/07/05 02:06:51;;;;;;;1.40;1.33;;;;;15.50;95659.00;;;;5035736;28;20683;-54
2023/07/05 02:09:18;;;;;;;5.13;1.27;;;;;15.40;95671.00;;;;5035726;28;20197;-54
2023/07/05 02:11:46;;;;;;;0.60;0.60;;;;;15.40;95666.00;;;;5035710;28;20196;-54
2023/07/05 02:14:14;;;;;;;0.70;0.70;;;;;15.70;95659.00;;;;5035619;28;20213;-54
2023/07/05 02:16:42;;;;;;;1.47;1.10;;;;;15.40;95650.00;;;;5035812;28;20251;-54
2023/07/05 02:19:09;;;;;;;0.97;0.97;;;;;15.60;95652.00;;;;5035798;28;20264;-54
2023/07/05 02:21:38;;;;;;;1.17;1.07;;;;;15.70;95670.00;;;;5035809;28;20614;-54
2023/07/05 02:24:06;;;;;;;0.50;0.50;;;;;15.70;95661.00;;;;5035363;28;20220;-54
2023/07/05 02:26:34;;;;;;;0.80;0.80;;;;;15.70;95666.00;;;;5035415;28;20219;-55
2023/07/05 02:29:01;;;;;;;3.30;1.23;;;;;15.70;95665.00;;;;5035606;28;20278;-55
2023/07/05 02:31:29;;;;;;;10.80;1.27;;;;;15.70;95649.00;;;;5035264;28;20197;-54
2023/07/05 02:33:56;;;;;;;0.77;0.77;;;;;15.80;95655.00;;;;5035216;28;20287;-55
2023/07/05 02:36:24;;;;;;;0.67;0.67;;;;;15.70;95652.00;;;;5035481;28;20285;-54
2023/07/05 02:38:53;;;;;;;0.50;0.50;;;;;15.90;95640.00;;;;5035181;28;20195;-54
2023/07/05 02:41:21;;;;;;;0.70;0.70;;;;;15.80;95643.00;;;;5035867;28;20193;-54
2023/07/05 02:43:50;;;;;;;0.53;0.53;;;;;15.80;95650.00;;;;5034796;28;20212;-55
2023/07/05 02:46:17;;;;;;;0.50;0.50;;;;;15.90;95645.00;;;;5035288;28;20596;-55
2023/07/05 02:48:45;;;;;;;0.60;0.60;;;;;15.90;95650.00;;;;5035985;28;20224;-54
2023/07/05 02:51:12;;;;;;;0.40;0.40;;;;;15.80;95641.00;;;;5035779;28;20195;-54
2023/07/05 02:53:40;;;;;;;0.50;0.50;;;;;15.70;95648.00;;;;5035049;28;20213;-57
2023/07/05 02:56:09;;;;;;;0.50;0.50;;;;;15.70;95646.00;;;;5035162;28;20555;-54
2023/07/05 02:58:36;;;;;;;0.60;0.60;;;;;15.80;95649.00;;;;5034910;28;20200;-54
2023/07/05 03:01:05;;;;;;;0.57;0.57;;;;;15.70;95642.00;;;;5035121;28;20560;-54
2023/07/05 03:03:33;;;;;;;0.60;0.60;;;;;15.60;95652.00;;;;5034519;28;20278;-54
2023/07/05 03:06:01;;;;;;;0.77;0.77;;;;;15.60;95650.00;;;;5034678;28;20200;-54
2023/07/05 03:08:30;;;;;;;0.67;0.67;;;;;15.60;95650.00;;;;5033332;28;20231;-54
2023/07/05 03:10:58;;;;;;;0.50;0.50;;;;;15.50;95650.00;;;;5034871;28;20624;-54
2023/07/05 03:13:29;;;;;;;0.60;0.60;;;;;15.60;95648.00;;;;5034449;28;20213;-54
2023/07/05 03:15:57;;;;;;;0.80;0.80;;;;;15.70;95647.00;;;;5034530;28;20188;-54
2023/07/05 03:18:24;;;;;;;0.60;0.60;;;;;15.70;95644.00;;;;5034444;28;20201;-55
2023/07/05 03:20:52;;;;;;;3.20;1.27;;;;;15.70;95639.00;;;;5034377;28;20196;-54
2023/07/05 03:23:20;;;;;;;0.50;0.50;;;;;15.60;95644.00;;;;5034356;28;20219;-55
2023/07/05 03:25:55;;;;;;;0.87;0.87;;;;;15.60;95651.00;;;;5034321;28;20672;-55
2023/07/05 03:28:22;;;;;;;0.60;0.60;;;;;15.50;95643.00;;;;5034260;28;20202;-54
2023/07/05 03:30:57;;;;;;;0.60;0.60;;;;;15.60;95646.00;;;;5034210;28;20197;-55
2023/07/05 03:33:25;;;;;;;0.60;0.60;;;;;15.70;95644.00;;;;5034371;28;20635;-54
2023/07/05 03:35:59;;;;;;;0.70;0.70;;;;;15.80;95650.00;;;;5034079;28;20200;-55
2023/07/05 03:38:28;;;;;;;0.77;0.77;;;;;15.50;95647.00;;;;5032769;28;20196;-55
2023/07/05 03:41:00;;;;;;;0.50;0.50;;;;;15.40;95641.00;;;;5033948;28;20204;-54
2023/07/05 03:43:29;;;;;;;0.67;0.67;;;;;15.60;95641.00;;;;5034053;28;20221;-54
2023/07/05 03:46:00;;;;;;;0.60;0.60;;;;;15.70;95649.00;;;;5033886;28;20196;-55
2023/07/05 03:48:29;;;;;;;1.23;1.23;;;;;15.80;95649.00;;;;5033796;28;20236;-55
2023/07/05 03:50:58;;;;;;;0.70;0.70;;;;;16.00;95661.00;;;;5033844;28;20189;-54
2023/07/05 03:53:26;;;;;;;0.83;0.83;;;;;16.00;95660.00;;;;5032376;28;20212;-54
2023/07/05 03:55:53;;;;;;;0.83;0.83;;;;;16.00;95652.00;;;;5033383;28;20610;-54
2023/07/05 03:58:21;;;;;;;0.90;0.90;;;;;16.10;95652.00;;;;5033893;28;20189;-54
2023/07/05 04:00:49;;;;;;;0.93;0.93;;;;;16.10;95653.00;;;;5033800;28;20196;-55
2023/07/05 04:03:18;;;;;;;0.60;0.60;;;;;16.10;95649.00;;;;5033396;28;20224;-55
2023/07/05 04:05:46;;;;;;;0.60;0.60;;;;;16.10;95647.00;;;;5033997;28;20192;-55
2023/07/05 04:08:13;;;;;;;0.60;0.60;;;;;16.10;95633.00;;;;5033497;28;20251;-55
2023/07/05 04:10:48;;;;;;;0.70;0.70;;;;;16.20;95639.00;;;;5033478;28;20276;-54
2023/07/05 04:13:15;;;;;;;0.70;0.70;;;;;16.10;95643.00;;;;5033659;28;20235;-54
2023/07/05 04:15:43;;;;;;;0.83;0.83;;;;;16.10;95635.00;;;;5032081;28;20196;-54
2023/07/05 04:18:10;;;;;;;0.60;0.60;;;;;16.00;95636.00;;;;5033562;28;20679;-54
2023/07/05 04:20:39;;;;;;;0.60;0.60;;;;;16.00;95628.00;;;;5031986;28;20583;-55
2023/07/05 04:23:07;;;;;;;0.60;0.60;;;;;16.10;95632.00;;;;5033444;28;20707;-54
2023/07/05 04:25:34;;;;;;;0.87;0.87;;;;;16.10;95634.00;;;;5031916;28;20688;-55
2023/07/05 04:28:02;;;;;;;0.50;0.50;;;;;16.00;95631.00;;;;5033102;28;20550;-54
2023/07/05 04:30:29;;;;;;;1.10;1.10;;;;;16.10;95641.00;;;;5033107;28;20242;-55
2023/07/05 04:32:56;;;;;;;0.83;0.83;;;;;16.10;95630.00;;;;5033024;28;20231;-54
2023/07/05 04:35:24;;;;;;;1.23;1.23;;;;;16.10;95630.00;;;;5032998;28;20200;-55
2023/07/05 04:37:53;;;;;;;0.70;0.70;;;;;16.10;95628.00;;;;5033252;28;20193;-54
2023/07/05 04:40:22;;;;;;;0.70;0.70;;;;;16.20;95631.00;;;;5033308;28;20255;-54
2023/07/05 04:42:50;;;;;;;1.30;1.27;;;;;16.10;95626.00;;;;5033164;28;20208;-55
2023/07/05 04:45:17;;;;;;;0.67;0.67;;;;;16.30;95611.00;;;;5032922;28;20197;-55
2023/07/05 04:47:45;;;;;;;0.70;0.70;;;;;16.50;95616.00;;;;5032773;28;20278;-55
2023/07/05 04:50:13;;;;;;;0.93;0.93;;;;;16.50;95612.00;;;;5031608;28;20632;-54
2023/07/05 04:52:40;;;;;;;0.80;0.80;;;;;16.50;95617.00;;;;5032762;28;20663;-54
2023/07/05 04:55:09;;;;;;;0.60;0.60;;;;;16.60;95602.00;;;;5033152;28;20680;-54
2023/07/05 04:57:36;;;;;;;0.80;0.80;;;;;16.70;95603.00;;;;5032786;28;20197;-54
2023/07/05 05:00:04;;;;;;;0.80;0.80;;;;;16.80;95598.00;;;;5032765;28;20204;-55
2023/07/05 05:02:32;;;;;;;0.50;0.50;;;;;16.80;95602.00;;;;5032852;28;20279;-54
2023/07/05 05:04:59;;;;;;;0.80;0.77;;;;;16.80;95596.00;;;;5033036;28;20322;-55
2023/07/05 05:07:27;;;;;;;0.53;0.53;;;;;16.90;95597.00;;;;5034748;28;20189;-55
2023/07/05 05:09:54;;;;;;;0.60;0.60;;;;;16.80;95597.00;;;;5036795;28;20228;-55
2023/07/05 05:12:23;;;;;;;0.50;0.50;;;;;16.80;95593.00;;;;5036798;28;20192;-55
2023/07/05 05:14:51;;;;;;;0.77;0.77;;;;;16.90;95589.00;;;;5036592;28;20259;-54
2023/07/05 05:17:19;;;;;;;0.60;0.60;;;;;17.00;95592.00;;;;5036890;28;20208;-54
2023/07/05 05:19:46;;;;;;;1.50;1.10;;;;;16.90;95596.00;;;;5036951;28;20660;-54
2023/07/05 05:22:14;;;;;;;0.50;0.50;;;;;17.20;95595.00;;;;5036484;28;20203;-54
2023/07/05 05:24:42;;;;;;;0.50;0.50;;;;;17.10;95608.00;;;;5036485;28;20212;-54
2023/07/05 05:27:09;;;;;;;0.50;0.50;;;;;17.20;95607.00;;;;5036750;28;20200;-54
2023/07/05 05:29:38;;;;;;;1.00;1.00;;;;;17.40;95617.00;;;;5036283;28;20220;-55
2023/07/05 05:32:06;;;;;;;0.70;0.70;;;;;17.40;95625.00;;;;5035058;28;20201;-54
2023/07/05 05:34:34;;;;;;;0.70;0.70;;;;;17.40;95629.00;;;;5036237;28;20216;-54
2023/07/05 05:37:01;;;;;;;0.93;0.90;;;;;17.30;95639.00;;;;5036303;28;20199;-54
2023/07/05 05:39:29;;;;;;;0.60;0.60;;;;;17.30;95631.00;;;;5034908;28;20188;-53
2023/07/05 05:41:57;;;;;;;0.60;0.60;;;;;17.40;95612.00;;;;5036181;28;20200;-54
2023/07/05 05:44:24;;;;;;;0.83;0.83;;;;;17.70;95618.00;;;;5036173;28;20217;-54
2023/07/05 05:46:53;;;;;;;0.90;0.90;;;;;17.70;95625.00;;;;5036080;28;20656;-54
2023/07/05 05:49:21;;;;;;;0.63;0.63;;;;;17.50;95631.00;;;;5036215;28;20230;-54
2023/07/05 05:51:48;;;;;;;0.80;0.80;;;;;17.80;95634.00;;;;5036101;28;20200;-54
2023/07/05 05:54:16;;;;;;;0.77;0.77;;;;;17.50;95636.00;;;;5036590;28;20274;-54
2023/07/05 05:56:43;;;;;;;1.10;1.10;;;;;17.30;95632.00;;;;5036666;28;20200;-54
2023/07/05 05:59:10;;;;;;;0.50;0.50;;;;;17.50;95624.00;;;;5035801;28;20196;-54
2023/07/05 06:01:38;;;;;;;0.93;0.93;;;;;17.40;95656.00;;;;5035826;28;20640;-55
2023/07/05 06:04:07;;;;;;;0.90;0.87;;;;;17.50;95664.00;;;;5035542;28;20236;-55
2023/07/05 06:06:34;;;;;;;0.60;0.60;;;;;17.60;95668.00;;;;5036233;28;20197;-54
2023/07/05 06:09:02;;;;;;;0.53;0.53;;;;;17.40;95672.00;;;;5035923;28;20220;-55
2023/07/05 06:11:29;;;;;;;0.40;0.40;;;;;17.20;95678.00;;;;5035529;28;20291;-54
2023/07/05 06:13:57;;;;;;;0.53;0.53;;;;;17.20;95693.00;;;;5035389;28;20220;-55
2023/07/05 06:16:24;;;;;;;0.80;0.80;;;;;17.20;95703.00;;;;5035474;28;20204;-55
2023/07/05 06:18:51;;;;;;;0.67;0.67;;;;;16.80;95716.00;;;;5034823;28;20672;-55
2023/07/05 06:21:21;;;;;;;0.90;0.90;;;;;16.80;95724.00;;;;5035369;28;20196;-56
2023/07/05 06:23:48;;;;;;;1.07;1.07;;;;;16.70;95722.00;;;;5035479;28;20696;-54
2023/07/05 06:26:15;;;;;;;0.70;0.70;;;;;16.50;95715.00;;;;5035346;28;20196;-55
2023/07/05 06:28:43;;;;;;;0.73;0.73;;;;;16.50;95721.00;;;;5035458;28;20221;-55
2023/07/05 06:31:11;;;;;;;2.37;1.27;;;;;16.50;95717.00;;;;5035078;28;20200;-55
2023/07/05 06:33:39;;;;;;;0.50;0.50;;;;;16.30;95717.00;;;;5035265;28;20223;-54
2023/07/05 06:36:08;;;;;;;0.80;0.80;;;;;16.30;95732.00;;;;5035463;28;20387;-54
2023/07/05 06:38:37;;;;;;;0.50;0.50;;;;;16.30;95730.00;;;;5035132;28;20196;-54
2023/07/05 06:41:05;;;;;;;0.60;0.60;;;;;16.40;95726.00;;;;5035080;28;20204;-54
2023/07/05 06:43:32;;;;;;;0.90;0.90;;;;;16.30;95742.00;;;;5034928;28;20208;-54
2023/07/05 06:46:00;;;;;;;0.70;0.70;;;;;16.10;95745.00;;;;5035319;28;20189;-55
2023/07/05 06:48:27;;;;;;;0.57;0.57;;;;;16.20;95744.00;;;;5034931;28;20229;-54
2023/07/05 06:50:58;;;;;;;0.60;0.60;;;;;16.20;95743.00;;;;5035034;28;20189;-54
2023/07/05 06:53:26;;;;;;;1.00;1.00;;;;;16.30;95744.00;;;;5033675;28;20231;-54
2023/07/05 06:55:55;;;;;;;0.43;0.43;;;;;16.40;95740.00;;;;5034886;28;20196;-54
2023/07/05 06:58:22;;;;;;;0.60;0.60;;;;;16.40;95749.00;;;;5034826;28;20196;-54
2023/07/05 07:00:51;;;;;;;0.50;0.50;;;;;16.20;95749.00;;;;5034824;28;20193;-54
2023/07/05 07:03:19;;;;;;;0.50;0.50;;;;;16.50;95749.00;;;;5034528;28;20220;-54
2023/07/05 07:05:52;;;;;;;0.70;0.70;;;;;16.40;95743.00;;;;5034699;28;20193;-54
2023/07/05 07:08:19;;;;;;;0.60;0.60;;;;;16.50;95746.00;;;;5035083;28;20209;-54
2023/07/05 07:10:47;;;;;;;0.60;0.60;;;;;16.70;95746.00;;;;5034800;28;20185;-54
2023/07/05 07:13:16;;;;;;;1.27;1.27;;;;;16.80;95744.00;;;;5034737;28;20588;-54
2023/07/05 07:15:43;;;;;;;0.50;0.50;;;;;17.10;95744.00;;;;5033196;28;20196;-54
2023/07/05 07:18:11;;;;;;;0.63;0.63;;;;;17.40;95744.00;;;;5034440;28;20246;-54
2023/07/05 07:20:39;;;;;;;0.60;0.60;;;;;17.50;95738.00;;;;5034572;28;20185;-54
2023/07/05 07:23:06;;;;;;;1.20;1.20;;;;;17.30;95744.00;;;;5034489;28;20216;-54
2023/07/05 07:25:33;;;;;;;0.53;0.53;;;;;17.10;95756.00;;;;5034307;28;20739;-54
2023/07/05 07:28:01;;;;;;;0.60;0.60;;;;;16.70;95764.00;;;;5034255;28;20188;-54
2023/07/05 07:30:30;;;;;;;0.60;0.60;;;;;16.60;95764.00;;;;5033167;28;20699;-54
2023/07/05 07:32:57;;;;;;;0.40;0.40;;;;;16.90;95762.00;;;;5034083;28;20710;-54
2023/07/05 07:35:26;;;;;;;0.50;0.50;;;;;16.80;95759.00;;;;5034107;28;20277;-54
2023/07/05 07:37:53;;;;;;;0.63;0.63;;;;;17.10;95759.00;;;;5034006;28;20193;-54
2023/07/05 07:40:21;;;;;;;0.50;0.50;;;;;17.20;95773.00;;;;5033995;28;20189;-54
2023/07/05 07:42:49;;;;;;;0.83;0.83;;;;;17.40;95777.00;;;;5034099;28;20213;-54
2023/07/05 07:45:17;;;;;;;0.90;0.90;;;;;17.20;95775.00;;;;5033900;28;20199;-54
2023/07/05 07:47:46;;;;;;;0.50;0.50;;;;;16.90;95771.00;;;;5033887;28;20189;-54
2023/07/05 07:50:13;;;;;;;0.50;0.50;;;;;16.80;95780.00;;;;5033781;28;20228;-54
2023/07/05 07:52:41;;;;;;;0.63;0.63;;;;;17.00;95789.00;;;;5033720;28;20197;-54
2023/07/05 07:55:09;;;;;;;0.50;0.50;;;;;16.80;95792.00;;;;5033741;28;20255;-54
2023/07/05 07:57:37;;;;;;;0.50;0.50;;;;;16.50;95800.00;;;;5034291;28;20551;-54
2023/07/05 08:00:08;;;;;;;0.77;0.77;;;;;16.40;95808.00;;;;5033603;28;20726;-54
2023/07/05 08:02:36;;;;;;;0.70;0.70;;;;;16.40;95800.00;;;;5033814;28;20238;-55
2023/07/05 08:05:12;;;;;;;0.60;0.60;;;;;16.30;95804.00;;;;5055612;22;20231;-60
2023/07/05 08:07:40;;;;;;;1.37;1.27;;;;;16.50;95807.00;;;;5053669;28;20181;-62
2023/07/05 08:10:08;;;;;;;0.70;0.70;;;;;16.60;95813.00;;;;5052143;28;20215;-62
2023/07/05 08:12:35;;;;;;;0.60;0.60;;;;;16.70;95802.00;;;;5054508;28;20551;-62
2023/07/05 08:15:03;;;;;;;0.70;0.70;;;;;16.40;95813.00;;;;5053337;28;20208;-61
2023/07/05 08:17:30;;;;;;;0.60;0.60;;;;;16.30;95817.00;;;;5053581;28;20239;-62
2023/07/05 08:19:58;;;;;;;0.70;0.70;;;;;16.50;95818.00;;;;5053224;28;20215;-62
2023/07/05 08:22:27;;;;;;;0.60;0.60;;;;;16.60;95819.00;;;;5053205;28;20200;-59
2023/07/05 08:24:54;;;;;;;0.43;0.43;;;;;16.70;95821.00;;;;5053124;28;20212;-60
2023/07/05 08:27:22;;;;;;;0.60;0.60;;;;;17.00;95830.00;;;;5053354;28;20203;-60
2023/07/05 08:29:49;;;;;;;0.50;0.50;;;;;16.90;95828.00;;;;5053047;28;20218;-61
2023/07/05 08:32:18;;;;;;;1.00;1.00;;;;;17.20;95835.00;;;;5053279;28;20628;-61
2023/07/05 08:34:46;;;;;;;0.70;0.70;;;;;17.40;95835.00;;;;5052929;28;20706;-61
2023/07/05 08:37:13;;;;;;;0.70;0.70;;;;;17.40;95837.00;;;;5053512;28;20195;-61
2023/07/05 08:39:42;;;;;;;0.60;0.60;;;;;17.60;95847.00;;;;5053019;28;20200;-61
2023/07/05 08:42:33;;;;;;;0.97;0.97;;;;;17.70;95847.00;;;;5052644;28;20275;-60
2023/07/05 08:45:12;;;;;;;0.70;0.70;;;;;17.40;95847.00;;;;5052900;28;20265;-61
2023/07/05 08:47:47;;;;;;;0.73;0.73;;;;;17.50;95851.00;;;;5052985;28;20191;-60
2023/07/05 08:50:26;;;;;;;1.27;1.20;;;;;17.60;95858.00;;;;5053626;28;20255;-62
2023/07/05 08:53:01;;;;;;;1.73;0.93;;;;;16.90;95847.00;;;;5053147;28;20579;-60
2023/07/05 08:55:43;;;;;;;1.07;1.07;;;;;17.40;95856.00;;;;5051729;28;20687;-61
2023/07/05 08:58:13;;;;;;;0.60;0.60;;;;;17.30;95860.00;;;;5053073;28;20227;-60
2023/07/05 09:00:47;;;;;;;0.37;0.37;;;;;17.80;95858.00;;;;5052755;28;20192;-61
2023/07/05 09:03:16;;;;;;;0.80;0.80;;;;;17.60;95865.00;;;;5052746;28;20226;-60
2023/07/05 09:05:49;;;;;;;0.93;0.93;;;;;17.20;95867.00;;;;5053034;28;20290;-60
2023/07/05 09:08:25;;;;;;;0.83;0.83;;;;;17.30;95861.00;;;;5052910;28;20549;-62
2023/07/05 09:11:00;;;;;;;0.70;0.70;;;;;17.90;95859.00;;;;5052688;28;20632;-61
2023/07/05 09:13:37;;;;;;;0.73;0.73;;;;;18.20;95865.00;;;;5052689;28;20190;-60
2023/07/05 09:16:13;;;;;;;0.50;0.50;;;;;17.80;95879.00;;;;5052765;28;20601;-60
2023/07/05 09:18:55;;;;;;;1.33;1.27;;;;;18.30;95876.00;;;;5052906;28;20554;-61
2023/07/05 09:21:31;;;;;;;1.73;1.63;;;;;18.20;95873.00;;;;5052623;28;20651;-61
2023/07/05 09:24:08;;;;;;;1.90;0.80;;;;;17.90;95876.00;;;;5052736;28;20188;-62
2023/07/05 09:26:41;;;;;;;0.87;0.87;;;;;17.80;95881.00;;;;5052604;28;20180;-61
2023/07/05 09:29:15;;;;;;;0.80;0.80;;;;;17.80;95865.00;;;;5051205;28;20200;-61
2023/07/05 09:31:44;;;;;;;0.97;0.97;;;;;17.90;95877.00;;;;5051316;28;20677;-61
2023/07/05 09:34:23;;;;;;;0.83;0.83;;;;;18.30;95882.00;;;;5052541;28;20208;-62
2023/07/05 09:36:51;;;;;;;0.43;0.43;;;;;17.70;95893.00;;;;5052763;28;20180;-61
2023/07/05 09:39:33;;;;;;;0.77;0.77;;;;;17.70;95900.00;;;;5052450;28;20207;-62
2023/07/05 09:42:04;;;;;;;1.27;1.27;;;;;17.80;95887.00;;;;5051244;28;20199;-60
2023/07/05 09:44:32;;;;;;;1.00;1.00;;;;;18.00;95903.00;;;;5052436;28;20218;-62
2023/07/05 09:47:00;;;;;;;0.60;0.60;;;;;18.10;95900.00;;;;5052686;28;20673;-60
2023/07/05 09:49:28;;;;;;;0.50;0.50;;;;;17.80;95888.00;;;;5051028;28;20657;-62
2023/07/05 09:51:56;;;;;;;0.70;0.70;;;;;18.10;95904.00;;;;5052238;28;20195;-61
2023/07/05 09:54:29;;;;;;;0.80;0.80;;;;;17.70;95900.00;;;;5055665;28;20208;-60
2023/07/05 09:56:59;;;;;;;1.47;1.47;;;;;18.00;95909.00;;;;5055952;28;20212;-59
2023/07/05 09:59:28;;;;;;;0.63;0.63;;;;;17.90;95906.00;;;;5055872;28;20204;-61
2023/07/05 10:02:00;;;;;;;0.80;0.80;;;;;18.10;95897.00;;;;5056430;28;20652;-61
2023/07/05 10:04:29;;;;;;;0.67;0.67;;;;;18.10;95898.00;;;;5055904;28;20231;-62
2023/07/05 10:07:02;;;;;;;0.80;0.80;;;;;18.40;95888.00;;;;5055778;28;20192;-61
2023/07/05 10:09:30;;;;;;;0.80;0.80;;;;;18.90;95883.00;;;;5055720;28;20565;-61
2023/07/05 10:12:09;;;;;;;0.70;0.70;;;;;18.50;95890.00;;;;5055669;28;20200;-61
2023/07/05 10:14:39;;;;;;;1.03;1.03;;;;;18.60;95906.00;;;;5055978;28;20242;-60
2023/07/05 10:17:11;;;;;;;5.30;1.33;;;;;18.70;95889.00;;;;5055541;28;20670;-60
2023/07/05 10:19:40;;;;;;;1.00;1.00;;;;;19.00;95891.00;;;;5055565;28;20183;-61
2023/07/05 10:22:14;;;;;;;0.73;0.57;;;;;19.20;95886.00;;;;5055430;28;20215;-61
2023/07/05 10:24:45;;;;;;;0.80;0.80;;;;;19.20;95891.00;;;;5055533;28;20222;-61
2023/07/05 10:27:24;;;;;;;0.97;0.97;;;;;19.00;95904.00;;;;5055405;28;20542;-61
2023/07/05 10:30:00;;;;;;;1.10;1.10;;;;;19.00;95893.00;;;;5055317;28;20203;-61
2023/07/05 10:32:29;;;;;;;0.67;0.67;;;;;19.20;95898.00;;;;5055386;28;20190;-61
2023/07/05 10:34:57;;;;;;;1.17;0.90;;;;;19.20;95893.00;;;;5055219;28;20212;-62
2023/07/05 10:37:30;;;;;;;1.00;1.00;;;;;19.50;95898.00;;;;5053909;28;20246;-61
2023/07/05 10:39:58;;;;;;;0.90;0.90;;;;;19.40;95902.00;;;;5055261;28;20536;-62
2023/07/05 10:42:26;;;;;;;0.63;0.63;;;;;19.50;95902.00;;;;5055062;28;20193;-62
2023/07/05 10:44:56;;;;;;;1.27;1.27;;;;;19.40;95911.00;;;;5055288;28;20212;-61
2023/07/05 10:47:24;;;;;;;0.87;0.87;;;;;19.40;95915.00;;;;5055390;28;20555;-61
2023/07/05 10:49:53;;;;;;;0.70;0.70;;;;;19.50;95909.00;;;;5055432;28;20261;-66
2023/07/05 10:52:22;;;;;;;1.30;1.00;;;;;18.80;95920.00;;;;5054922;28;20196;-61
2023/07/05 10:54:59;;;;;;;3.63;1.03;;;;;19.20;95910.00;;;;5054791;28;20220;-60
2023/07/05 10:57:31;;;;;;;0.80;0.80;;;;;19.50;95914.00;;;;5053529;28;20245;-61
2023/07/05 11:00:11;;;;;;;0.70;0.70;;;;;19.40;95923.00;;;;5055305;28;20172;-60
2023/07/05 11:02:42;;;;;;;1.00;1.00;;;;;19.30;95926.00;;;;5054823;28;20184;-62
2023/07/05 11:05:23;;;;;;;0.60;0.60;;;;;19.60;95924.00;;;;5054875;28;20315;-60
2023/07/05 11:07:53;;;;;;;1.00;1.00;;;;;19.50;95927.00;;;;5054818;28;20184;-61
2023/07/05 11:10:22;;;;;;;2.20;0.80;;;;;19.20;95904.00;;;;5053225;28;20598;-60
2023/07/05 11:12:49;;;;;;;0.70;0.70;;;;;19.50;95938.00;;;;5054724;28;20274;-61
2023/07/05 11:15:21;;;;;;;1.43;1.33;;;;;19.40;95925.00;;;;5054639;28;20592;-60
2023/07/05 11:17:50;;;;;;;0.90;0.90;;;;;19.40;95918.00;;;;5054473;28;20283;-61
2023/07/05 11:20:48;;;;;;;0.63;0.63;;;;;19.30;95898.00;;;;5054277;28;20191;-62
2023/07/05 11:23:50;;;;;;;0.70;0.70;;;;;19.80;95900.00;;;;5053624;28;20195;-60
2023/07/05 11:26:31;;;;;;;0.90;0.90;;;;;20.10;95890.00;;;;5054444;28;20183;-61
2023/07/05 11:28:58;;;;;;;0.70;0.70;;;;;19.90;95910.00;;;;5054482;28;20192;-61
2023/07/05 11:31:58;;;;;;;1.03;0.80;;;;;19.70;95896.00;;;;5054214;28;20255;-60
2023/07/05 11:34:41;;;;;;;0.97;0.97;;;;;20.20;95887.00;;;;5051186;28;20230;-61
2023/07/05 11:37:49;;;;;;;0.53;0.53;;;;;20.00;95890.00;;;;5054050;28;20187;-61
2023/07/05 11:40:58;;;;;;;9.60;0.70;;;;;20.20;95882.00;;;;5054290;28;20183;-62
2023/07/05 11:43:27;;;;;;;0.70;0.70;;;;;20.40;95892.00;;;;5034342;28;20594;-61
2023/07/05 11:45:54;;;;;;;0.70;0.70;;;;;20.40;95888.00;;;;5053778;28;20223;-61
2023/07/05 11:48:45;;;;;;;0.60;0.60;;;;;20.40;95905.00;;;;5054073;28;20207;-61
2023/07/05 11:51:30;;;;;;;0.60;0.60;;;;;21.10;95926.00;;;;5054033;28;20204;-61
2023/07/05 11:54:01;;;;;;;0.60;0.60;;;;;20.60;95910.00;;;;5052450;28;20192;-61
2023/07/05 11:56:33;;;;;;;0.60;0.60;;;;;21.10;95914.00;;;;5053790;28;20177;-61
2023/07/05 11:59:04;;;;;;;0.80;0.80;;;;;20.70;95908.00;;;;5053932;28;20238;-61
2023/07/05 12:01:38;;;;;;;0.60;0.60;;;;;20.90;95898.00;;;;5053638;28;20180;-62
2023/07/05 12:04:12;;;;;;;0.60;0.60;;;;;20.40;95904.00;;;;5053641;28;20552;-60
2023/07/05 12:06:43;;;;;;;0.80;0.80;;;;;20.60;95892.00;;;;5053704;28;20242;-61
2023/07/05 12:09:15;;;;;;;0.80;0.80;;;;;20.50;95904.00;;;;5053683;28;20206;-61
2023/07/05 12:11:44;;;;;;;1.00;1.00;;;;;21.30;95919.00;;;;5053608;28;20227;-61
2023/07/05 12:14:13;;;;;;;0.90;0.90;;;;;21.10;95903.00;;;;5053390;28;20223;-61
2023/07/05 12:16:42;;;;;;;1.27;1.20;;;;;20.80;95914.00;;;;5052829;28;20195;-61
2023/07/05 12:19:18;;;;;;;0.80;0.80;;;;;20.20;95900.00;;;;5053319;28;20203;-61
2023/07/05 12:21:53;;;;;;;0.73;0.73;;;;;21.20;95900.00;;;;5053776;28;20184;-60
2023/07/05 12:24:21;;;;;;;0.80;0.80;;;;;22.00;95899.00;;;;5053297;28;20223;-61
2023/07/05 12:26:48;;;;;;;0.50;0.50;;;;;22.20;95894.00;;;;5053412;28;20192;-61
2023/07/05 12:29:22;;;;;;;0.67;0.67;;;;;21.50;95893.00;;;;5053841;28;20200;-61
2023/07/05 12:32:01;;;;;;;1.23;1.20;;;;;21.50;95898.00;;;;5052709;28;20199;-61
2023/07/05 12:34:30;;;;;;;0.50;0.50;;;;;21.60;95900.00;;;;5053273;28;20219;-61
2023/07/05 12:36:58;;;;;;;1.07;1.07;;;;;21.70;95907.00;;;;5052989;28;20199;-61